Agonistis — SVBC3 — position and weather

sailwx.info

Track history (hours):
 
Tides and Currents Weather Stations Pressure Air Temp Water Temp Dewpoint Dewpoint Depression Visibility Wind Speed Wind Dir Waves Ship Positions

Agonistis

Last reported at 2016-Sep-18 19:33 UTC. Time now 2016-Sep-29 11:50 UTC.
Position N 48°30' W 125°12'.
Warning: this ship's position is 10 days out of date.

Length 196 m; draft 13.8 m.

Type: Cargo ship. MMSI: 241048000.

Date/timePositionNaut miles runAvg speedWind from/ knotsBaromVisibWave heightAir tempDewpointWater temp
2016-Sep-18 19:33N 48°30' W 125°12'4812.1
2016-Sep-18 15:34N 48°19' W 124°01'1313.3
2016-Sep-18 14:34N 48°16' W 123°42'31 7.8
2016-Sep-18 10:34N 48°42' W 123°15'1010.2
2016-Sep-18 09:34N 48°47' W 123°01'31 4.5
2016-Sep-18 02:33N 49°18' W 123°04'0 0.0
2016-Sep-18 01:33N 49°18' W 123°04'0 0.0
2016-Sep-18 00:33N 49°18' W 123°04'0 0.0
2016-Sep-17 22:33N 49°18' W 123°04'0 0.0
2016-Sep-17 21:33N 49°18' W 123°04'0 0.0
2016-Sep-17 20:33N 49°18' W 123°04'0 0.0
2016-Sep-17 19:15N 49°18' W 123°04'0 0.0
2016-Sep-17 13:33N 49°18' W 123°04'0 0.0
2016-Sep-17 12:33N 49°18' W 123°04'0 0.0
2016-Sep-17 10:33N 49°18' W 123°04'0 0.0
2016-Sep-17 09:33N 49°18' W 123°04'0 0.0
2016-Sep-17 08:33N 49°18' W 123°04'0 0.0
2016-Sep-17 07:33N 49°18' W 123°04'0 0.0
2016-Sep-17 05:33N 49°18' W 123°04'0 0.0
2016-Sep-17 04:33N 49°18' W 123°04'0 0.0
2016-Sep-17 00:33N 49°18' W 123°04'0 0.0
2016-Sep-16 17:33N 49°18' W 123°04'0 0.0
2016-Sep-16 15:33N 49°18' W 123°04'0 0.0
2016-Sep-16 12:33N 49°18' W 123°04'0 0.0
2016-Sep-16 09:33N 49°18' W 123°04'0 0.0
2016-Sep-16 07:33N 49°18' W 123°04'0 0.0
2016-Sep-16 03:33N 49°18' W 123°04'0 0.0
2016-Sep-16 02:33N 49°18' W 123°04'0 0.0
2016-Sep-16 00:33N 49°18' W 123°04'0 0.0
2016-Sep-15 22:33N 49°18' W 123°04'0 0.0
2016-Sep-15 21:33N 49°18' W 123°04'0 0.0
2016-Sep-15 20:33N 49°18' W 123°04'0 0.0
2016-Sep-15 18:33N 49°18' W 123°04'0 0.0
2016-Sep-15 12:33N 49°18' W 123°04'0 0.0
2016-Sep-15 11:33N 49°18' W 123°04'0 0.0
2016-Sep-15 04:33N 49°18' W 123°04'0 0.0
2016-Sep-15 03:33N 49°18' W 123°04'0 0.0
2016-Sep-15 01:33N 49°18' W 123°04'0 0.1
2016-Sep-14 22:33N 49°18' W 123°05'6 6.0
2016-Sep-14 21:31N 49°20' W 123°14'0 0.1
2016-Sep-14 17:31N 49°20' W 123°14'0 0.1
2016-Sep-14 16:31N 49°20' W 123°14'0 0.0
2016-Sep-14 13:31N 49°20' W 123°14'0 0.1
2016-Sep-14 12:31N 49°20' W 123°14'0 0.0
2016-Sep-14 10:31N 49°20' W 123°14'0 0.1
2016-Sep-14 09:31N 49°20' W 123°14'0 0.0
2016-Sep-14 08:31N 49°20' W 123°14'0 0.0
2016-Sep-14 07:31N 49°20' W 123°14'0 0.0
2016-Sep-14 06:31N 49°20' W 123°14'0 0.0
2016-Sep-14 03:31N 49°20' W 123°14'0 0.0
2016-Sep-13 22:31N 49°20' W 123°14'16 8.3
2016-Sep-13 20:33N 49°04' W 123°20'2210.9
2016-Sep-13 18:33N 48°44' W 123°07'1010.5
2016-Sep-13 17:34N 48°34' W 123°12'1110.7
2016-Sep-13 16:33N 48°24' W 123°13'35 6.9
2016-Sep-13 11:33N 48°16' W 124°04'19 9.5
2016-Sep-13 09:33N 48°25' W 124°30'2010.2
2016-Sep-13 07:33N 48°29' W 124°60'1312.9
2016-Sep-13 06:33N 48°29' W 125°19'2613.0
2016-Sep-13 04:34N 48°28' W 125°59'2612.8
2016-Sep-13 02:34N 48°28' W 126°37'6411.7
2016-Sep-12 21:06N 47°44' W 127°47'  
Track history (hours):
 
Tides and Currents Weather Stations Pressure Air Temp Water Temp Dewpoint Dewpoint Depression Visibility Wind Speed Wind Dir Waves Ship Positions

Agonistis

Last reported at 2016-Sep-18 19:33 UTC. Time now 2016-Sep-29 11:50 UTC.
Position N 48°30' W 125°12'.
Warning: this ship's position is 10 days out of date.

Length 196 m; draft 13.8 m.

Type: Cargo ship. MMSI: 241048000.

Date/timePositionNaut miles runAvg speedWind from/ knotsBaromVisibWave heightAir tempDewpointWater temp
2016-Sep-18 19:33N 48°30' W 125°12'4812.1
2016-Sep-18 15:34N 48°19' W 124°01'1313.3
2016-Sep-18 14:34N 48°16' W 123°42'31 7.8
2016-Sep-18 10:34N 48°42' W 123°15'1010.2
2016-Sep-18 09:34N 48°47' W 123°01'31 4.5
2016-Sep-18 02:33N 49°18' W 123°04'0 0.0
2016-Sep-18 01:33N 49°18' W 123°04'0 0.0
2016-Sep-18 00:33N 49°18' W 123°04'0 0.0
2016-Sep-17 22:33N 49°18' W 123°04'0 0.0
2016-Sep-17 21:33N 49°18' W 123°04'0 0.0
2016-Sep-17 20:33N 49°18' W 123°04'0 0.0
2016-Sep-17 19:15N 49°18' W 123°04'0 0.0
2016-Sep-17 13:33N 49°18' W 123°04'0 0.0
2016-Sep-17 12:33N 49°18' W 123°04'0 0.0
2016-Sep-17 10:33N 49°18' W 123°04'0 0.0
2016-Sep-17 09:33N 49°18' W 123°04'0 0.0
2016-Sep-17 08:33N 49°18' W 123°04'0 0.0
2016-Sep-17 07:33N 49°18' W 123°04'0 0.0
2016-Sep-17 05:33N 49°18' W 123°04'0 0.0
2016-Sep-17 04:33N 49°18' W 123°04'0 0.0
2016-Sep-17 00:33N 49°18' W 123°04'0 0.0
2016-Sep-16 17:33N 49°18' W 123°04'0 0.0
2016-Sep-16 15:33N 49°18' W 123°04'0 0.0
2016-Sep-16 12:33N 49°18' W 123°04'0 0.0
2016-Sep-16 09:33N 49°18' W 123°04'0 0.0
2016-Sep-16 07:33N 49°18' W 123°04'0 0.0
2016-Sep-16 03:33N 49°18' W 123°04'0 0.0
2016-Sep-16 02:33N 49°18' W 123°04'0 0.0
2016-Sep-16 00:33N 49°18' W 123°04'0 0.0
2016-Sep-15 22:33N 49°18' W 123°04'0 0.0
2016-Sep-15 21:33N 49°18' W 123°04'0 0.0
2016-Sep-15 20:33N 49°18' W 123°04'0 0.0
2016-Sep-15 18:33N 49°18' W 123°04'0 0.0
2016-Sep-15 12:33N 49°18' W 123°04'0 0.0
2016-Sep-15 11:33N 49°18' W 123°04'0 0.0
2016-Sep-15 04:33N 49°18' W 123°04'0 0.0
2016-Sep-15 03:33N 49°18' W 123°04'0 0.0
2016-Sep-15 01:33N 49°18' W 123°04'0 0.1
2016-Sep-14 22:33N 49°18' W 123°05'6 6.0
2016-Sep-14 21:31N 49°20' W 123°14'0 0.1
2016-Sep-14 17:31N 49°20' W 123°14'0 0.1
2016-Sep-14 16:31N 49°20' W 123°14'0 0.0
2016-Sep-14 13:31N 49°20' W 123°14'0 0.1
2016-Sep-14 12:31N 49°20' W 123°14'0 0.0
2016-Sep-14 10:31N 49°20' W 123°14'0 0.1
2016-Sep-14 09:31N 49°20' W 123°14'0 0.0
2016-Sep-14 08:31N 49°20' W 123°14'0 0.0
2016-Sep-14 07:31N 49°20' W 123°14'0 0.0
2016-Sep-14 06:31N 49°20' W 123°14'0 0.0
2016-Sep-14 03:31N 49°20' W 123°14'0 0.0
2016-Sep-13 22:31N 49°20' W 123°14'16 8.3
2016-Sep-13 20:33N 49°04' W 123°20'2210.9
2016-Sep-13 18:33N 48°44' W 123°07'1010.5
2016-Sep-13 17:34N 48°34' W 123°12'1110.7
2016-Sep-13 16:33N 48°24' W 123°13'35 6.9
2016-Sep-13 11:33N 48°16' W 124°04'19 9.5
2016-Sep-13 09:33N 48°25' W 124°30'2010.2
2016-Sep-13 07:33N 48°29' W 124°60'1312.9
2016-Sep-13 06:33N 48°29' W 125°19'2613.0
2016-Sep-13 04:34N 48°28' W 125°59'2612.8
2016-Sep-13 02:34N 48°28' W 126°37'6411.7
2016-Sep-12 21:06N 47°44' W 127°47'  

Dump ship's entire track history